sensor_id;sensor_type;location;lat;lon;timestamp;P1;durP1;ratioP1;P2;durP2;ratioP2
50549;SDS011;36505;52.512;13.460;2023-09-18T00:00:41;10.85;;;7.93;;
50549;SDS011;36505;52.512;13.460;2023-09-18T00:03:07;11.90;;;7.45;;
50549;SDS011;36505;52.512;13.460;2023-09-18T00:05:33;11.35;;;7.90;;
50549;SDS011;36505;52.512;13.460;2023-09-18T00:07:59;12.55;;;6.57;;
50549;SDS011;36505;52.512;13.460;2023-09-18T00:10:25;10.48;;;7.28;;
50549;SDS011;36505;52.512;13.460;2023-09-18T00:12:51;11.45;;;7.43;;
50549;SDS011;36505;52.512;13.460;2023-09-18T00:15:16;10.00;;;7.38;;
50549;SDS011;36505;52.512;13.460;2023-09-18T00:17:43;9.00;;;7.03;;
50549;SDS011;36505;52.512;13.460;2023-09-18T00:20:08;10.75;;;7.10;;
50549;SDS011;36505;52.512;13.460;2023-09-18T00:22:34;9.75;;;7.07;;
50549;SDS011;36505;52.512;13.460;2023-09-18T00:24:59;12.13;;;7.90;;
50549;SDS011;36505;52.512;13.460;2023-09-18T00:27:26;11.43;;;7.38;;
50549;SDS011;36505;52.512;13.460;2023-09-18T00:29:51;10.15;;;7.63;;
50549;SDS011;36505;52.512;13.460;2023-09-18T00:32:19;13.65;;;8.18;;
50549;SDS011;36505;52.512;13.460;2023-09-18T00:34:45;10.57;;;6.88;;
50549;SDS011;36505;52.512;13.460;2023-09-18T00:37:10;10.85;;;7.65;;
50549;SDS011;36505;52.512;13.460;2023-09-18T00:39:37;10.77;;;7.43;;
50549;SDS011;36505;52.512;13.460;2023-09-18T00:42:03;7.55;;;6.75;;
50549;SDS011;36505;52.512;13.460;2023-09-18T00:44:28;10.32;;;6.82;;
50549;SDS011;36505;52.512;13.460;2023-09-18T00:46:54;8.55;;;7.00;;
50549;SDS011;36505;52.512;13.460;2023-09-18T00:49:20;10.25;;;7.78;;
50549;SDS011;36505;52.512;13.460;2023-09-18T00:51:48;11.57;;;8.63;;
50549;SDS011;36505;52.512;13.460;2023-09-18T00:54:15;11.60;;;7.35;;
50549;SDS011;36505;52.512;13.460;2023-09-18T00:56:43;12.43;;;7.80;;
50549;SDS011;36505;52.512;13.460;2023-09-18T00:59:09;9.68;;;7.55;;
50549;SDS011;36505;52.512;13.460;2023-09-18T01:01:35;11.43;;;7.45;;
50549;SDS011;36505;52.512;13.460;2023-09-18T01:04:01;9.52;;;7.25;;
50549;SDS011;36505;52.512;13.460;2023-09-18T01:06:26;10.18;;;7.70;;
50549;SDS011;36505;52.512;13.460;2023-09-18T01:08:55;10.05;;;7.13;;
50549;SDS011;36505;52.512;13.460;2023-09-18T01:16:51;9.02;;;7.43;;
50549;SDS011;36505;52.512;13.460;2023-09-18T01:19:35;11.23;;;7.25;;
50549;SDS011;36505;52.512;13.460;2023-09-18T01:22:04;8.85;;;7.00;;
50549;SDS011;36505;52.512;13.460;2023-09-18T01:24:32;8.80;;;7.20;;
50549;SDS011;36505;52.512;13.460;2023-09-18T01:26:58;10.30;;;7.38;;
50549;SDS011;36505;52.512;13.460;2023-09-18T01:29:23;10.13;;;7.68;;
50549;SDS011;36505;52.512;13.460;2023-09-18T01:31:48;10.30;;;7.38;;
50549;SDS011;36505;52.512;13.460;2023-09-18T01:34:18;10.63;;;7.38;;
50549;SDS011;36505;52.512;13.460;2023-09-18T01:39:12;9.70;;;6.90;;
50549;SDS011;36505;52.512;13.460;2023-09-18T01:41:38;9.65;;;7.47;;
50549;SDS011;36505;52.512;13.460;2023-09-18T01:44:06;8.52;;;7.05;;
50549;SDS011;36505;52.512;13.460;2023-09-18T01:46:34;14.43;;;8.13;;
50549;SDS011;36505;52.512;13.460;2023-09-18T01:49:03;7.85;;;6.28;;
50549;SDS011;36505;52.512;13.460;2023-09-18T01:51:28;9.75;;;6.95;;
50549;SDS011;36505;52.512;13.460;2023-09-18T01:53:55;9.73;;;6.85;;
50549;SDS011;36505;52.512;13.460;2023-09-18T01:56:21;9.55;;;6.90;;
50549;SDS011;36505;52.512;13.460;2023-09-18T01:58:46;9.52;;;6.97;;
50549;SDS011;36505;52.512;13.460;2023-09-18T02:01:12;7.90;;;6.50;;
50549;SDS011;36505;52.512;13.460;2023-09-18T02:03:37;9.23;;;6.95;;
50549;SDS011;36505;52.512;13.460;2023-09-18T02:06:06;10.30;;;7.50;;
50549;SDS011;36505;52.512;13.460;2023-09-18T02:08:35;11.02;;;6.75;;
50549;SDS011;36505;52.512;13.460;2023-09-18T02:11:00;10.40;;;7.43;;
50549;SDS011;36505;52.512;13.460;2023-09-18T02:13:26;8.18;;;6.65;;
50549;SDS011;36505;52.512;13.460;2023-09-18T02:15:51;10.02;;;6.70;;
50549;SDS011;36505;52.512;13.460;2023-09-18T02:18:17;12.27;;;6.70;;
50549;SDS011;36505;52.512;13.460;2023-09-18T02:20:42;9.15;;;6.90;;
50549;SDS011;36505;52.512;13.460;2023-09-18T02:23:09;9.40;;;6.53;;
50549;SDS011;36505;52.512;13.460;2023-09-18T02:25:34;11.77;;;8.13;;
50549;SDS011;36505;52.512;13.460;2023-09-18T02:28:00;9.05;;;6.95;;
50549;SDS011;36505;52.512;13.460;2023-09-18T02:30:25;12.73;;;7.20;;
50549;SDS011;36505;52.512;13.460;2023-09-18T02:32:50;9.13;;;7.13;;
50549;SDS011;36505;52.512;13.460;2023-09-18T02:35:16;11.63;;;8.35;;
50549;SDS011;36505;52.512;13.460;2023-09-18T02:37:41;9.80;;;7.28;;
50549;SDS011;36505;52.512;13.460;2023-09-18T02:40:06;11.90;;;7.30;;
50549;SDS011;36505;52.512;13.460;2023-09-18T02:42:33;10.70;;;7.28;;
50549;SDS011;36505;52.512;13.460;2023-09-18T02:44:58;12.05;;;6.78;;
50549;SDS011;36505;52.512;13.460;2023-09-18T02:47:23;12.93;;;7.20;;
50549;SDS011;36505;52.512;13.460;2023-09-18T02:49:49;8.32;;;6.68;;
50549;SDS011;36505;52.512;13.460;2023-09-18T02:52:14;11.85;;;6.75;;
50549;SDS011;36505;52.512;13.460;2023-09-18T02:54:39;7.65;;;6.47;;
50549;SDS011;36505;52.512;13.460;2023-09-18T02:57:05;9.15;;;6.53;;
50549;SDS011;36505;52.512;13.460;2023-09-18T02:59:30;10.23;;;6.72;;
50549;SDS011;36505;52.512;13.460;2023-09-18T03:01:57;10.27;;;6.90;;
50549;SDS011;36505;52.512;13.460;2023-09-18T03:04:22;9.77;;;6.63;;
50549;SDS011;36505;52.512;13.460;2023-09-18T03:06:47;8.57;;;6.55;;
50549;SDS011;36505;52.512;13.460;2023-09-18T03:09:13;13.77;;;6.95;;
50549;SDS011;36505;52.512;13.460;2023-09-18T03:11:40;8.52;;;6.13;;
50549;SDS011;36505;52.512;13.460;2023-09-18T03:14:05;9.07;;;6.65;;
50549;SDS011;36505;52.512;13.460;2023-09-18T03:16:31;10.18;;;7.07;;
50549;SDS011;36505;52.512;13.460;2023-09-18T03:18:58;9.40;;;6.93;;
50549;SDS011;36505;52.512;13.460;2023-09-18T03:21:23;11.25;;;6.38;;
50549;SDS011;36505;52.512;13.460;2023-09-18T03:23:49;8.95;;;7.03;;
50549;SDS011;36505;52.512;13.460;2023-09-18T03:26:15;11.15;;;6.80;;
50549;SDS011;36505;52.512;13.460;2023-09-18T03:28:40;10.60;;;7.38;;
50549;SDS011;36505;52.512;13.460;2023-09-18T03:31:06;10.30;;;7.57;;
50549;SDS011;36505;52.512;13.460;2023-09-18T03:33:31;9.32;;;6.78;;
50549;SDS011;36505;52.512;13.460;2023-09-18T03:35:57;11.07;;;7.60;;
50549;SDS011;36505;52.512;13.460;2023-09-18T03:38:23;11.23;;;7.30;;
50549;SDS011;36505;52.512;13.460;2023-09-18T03:40:49;9.95;;;6.55;;
50549;SDS011;36505;52.512;13.460;2023-09-18T03:43:15;8.18;;;6.10;;
50549;SDS011;36505;52.512;13.460;2023-09-18T03:45:41;9.57;;;6.03;;
50549;SDS011;36505;52.512;13.460;2023-09-18T03:48:06;11.32;;;7.22;;
50549;SDS011;36505;52.512;13.460;2023-09-18T03:50:31;9.52;;;6.53;;
50549;SDS011;36505;52.512;13.460;2023-09-18T03:52:57;11.13;;;6.90;;
50549;SDS011;36505;52.512;13.460;2023-09-18T03:55:24;9.88;;;7.00;;
50549;SDS011;36505;52.512;13.460;2023-09-18T03:57:49;10.13;;;7.05;;
50549;SDS011;36505;52.512;13.460;2023-09-18T04:00:17;11.63;;;7.00;;
50549;SDS011;36505;52.512;13.460;2023-09-18T04:02:42;9.25;;;7.07;;
50549;SDS011;36505;52.512;13.460;2023-09-18T04:05:08;9.27;;;7.18;;
50549;SDS011;36505;52.512;13.460;2023-09-18T04:07:34;9.77;;;6.63;;
50549;SDS011;36505;52.512;13.460;2023-09-18T04:09:59;10.10;;;7.13;;
50549;SDS011;36505;52.512;13.460;2023-09-18T04:12:25;9.23;;;7.72;;
50549;SDS011;36505;52.512;13.460;2023-09-18T04:14:50;12.10;;;7.95;;
50549;SDS011;36505;52.512;13.460;2023-09-18T04:17:16;11.98;;;6.35;;
50549;SDS011;36505;52.512;13.460;2023-09-18T04:19:41;11.20;;;6.70;;
50549;SDS011;36505;52.512;13.460;2023-09-18T04:22:08;11.77;;;6.90;;
50549;SDS011;36505;52.512;13.460;2023-09-18T04:24:33;9.60;;;7.38;;
50549;SDS011;36505;52.512;13.460;2023-09-18T04:26:59;9.73;;;7.50;;
50549;SDS011;36505;52.512;13.460;2023-09-18T04:29:24;10.95;;;7.05;;
50549;SDS011;36505;52.512;13.460;2023-09-18T04:31:49;8.30;;;6.80;;
50549;SDS011;36505;52.512;13.460;2023-09-18T04:34:15;13.35;;;7.57;;
50549;SDS011;36505;52.512;13.460;2023-09-18T04:36:40;9.88;;;7.32;;
50549;SDS011;36505;52.512;13.460;2023-09-18T04:39:06;9.75;;;7.28;;
50549;SDS011;36505;52.512;13.460;2023-09-18T04:41:33;8.57;;;7.07;;
50549;SDS011;36505;52.512;13.460;2023-09-18T04:43:58;10.07;;;7.00;;
50549;SDS011;36505;52.512;13.460;2023-09-18T04:46:24;9.73;;;7.32;;
50549;SDS011;36505;52.512;13.460;2023-09-18T04:48:50;8.15;;;6.43;;
50549;SDS011;36505;52.512;13.460;2023-09-18T04:51:16;11.20;;;7.05;;
50549;SDS011;36505;52.512;13.460;2023-09-18T04:53:41;12.30;;;7.85;;
50549;SDS011;36505;52.512;13.460;2023-09-18T04:56:07;10.90;;;7.32;;
50549;SDS011;36505;52.512;13.460;2023-09-18T04:58:35;10.10;;;6.88;;
50549;SDS011;36505;52.512;13.460;2023-09-18T05:01:02;15.98;;;7.35;;
50549;SDS011;36505;52.512;13.460;2023-09-18T05:03:30;9.40;;;7.03;;
50549;SDS011;36505;52.512;13.460;2023-09-18T05:05:58;11.43;;;7.32;;
50549;SDS011;36505;52.512;13.460;2023-09-18T05:08:24;8.57;;;7.07;;
50549;SDS011;36505;52.512;13.460;2023-09-18T05:10:49;14.00;;;6.90;;
50549;SDS011;36505;52.512;13.460;2023-09-18T05:13:15;12.85;;;7.72;;
50549;SDS011;36505;52.512;13.460;2023-09-18T05:15:40;7.78;;;6.07;;
50549;SDS011;36505;52.512;13.460;2023-09-18T05:18:06;12.63;;;7.60;;
50549;SDS011;36505;52.512;13.460;2023-09-18T05:20:31;8.75;;;7.32;;
50549;SDS011;36505;52.512;13.460;2023-09-18T05:23:00;13.75;;;6.88;;
50549;SDS011;36505;52.512;13.460;2023-09-18T05:25:27;10.02;;;7.28;;
50549;SDS011;36505;52.512;13.460;2023-09-18T05:27:54;9.77;;;7.57;;
50549;SDS011;36505;52.512;13.460;2023-09-18T05:30:26;10.95;;;7.47;;
50549;SDS011;36505;52.512;13.460;2023-09-18T05:33:00;9.65;;;7.20;;
50549;SDS011;36505;52.512;13.460;2023-09-18T05:35:33;12.52;;;7.72;;
50549;SDS011;36505;52.512;13.460;2023-09-18T05:38:00;12.02;;;7.63;;
50549;SDS011;36505;52.512;13.460;2023-09-18T05:40:25;10.82;;;7.07;;
50549;SDS011;36505;52.512;13.460;2023-09-18T05:42:54;11.05;;;7.65;;
50549;SDS011;36505;52.512;13.460;2023-09-18T05:45:20;10.52;;;7.25;;
50549;SDS011;36505;52.512;13.460;2023-09-18T05:47:46;12.88;;;7.78;;
50549;SDS011;36505;52.512;13.460;2023-09-18T05:50:12;9.15;;;7.38;;
50549;SDS011;36505;52.512;13.460;2023-09-18T05:52:40;8.73;;;6.20;;
50549;SDS011;36505;52.512;13.460;2023-09-18T05:55:05;9.40;;;7.22;;
50549;SDS011;36505;52.512;13.460;2023-09-18T05:57:32;9.85;;;7.10;;
50549;SDS011;36505;52.512;13.460;2023-09-18T05:59:57;9.73;;;7.18;;
50549;SDS011;36505;52.512;13.460;2023-09-18T06:02:23;12.25;;;7.20;;
50549;SDS011;36505;52.512;13.460;2023-09-18T06:04:52;12.45;;;6.90;;
50549;SDS011;36505;52.512;13.460;2023-09-18T06:07:20;8.65;;;6.35;;
50549;SDS011;36505;52.512;13.460;2023-09-18T06:09:47;8.95;;;6.40;;
50549;SDS011;36505;52.512;13.460;2023-09-18T06:12:13;13.10;;;6.88;;
50549;SDS011;36505;52.512;13.460;2023-09-18T06:14:39;8.95;;;6.13;;
50549;SDS011;36505;52.512;13.460;2023-09-18T06:17:04;10.77;;;6.95;;
50549;SDS011;36505;52.512;13.460;2023-09-18T06:19:31;8.35;;;6.43;;
50549;SDS011;36505;52.512;13.460;2023-09-18T06:21:56;8.82;;;5.80;;
50549;SDS011;36505;52.512;13.460;2023-09-18T06:24:21;10.50;;;6.65;;
50549;SDS011;36505;52.512;13.460;2023-09-18T06:26:47;12.57;;;6.72;;
50549;SDS011;36505;52.512;13.460;2023-09-18T06:29:13;11.02;;;6.63;;
50549;SDS011;36505;52.512;13.460;2023-09-18T06:31:39;10.13;;;6.20;;
50549;SDS011;36505;52.512;13.460;2023-09-18T06:34:04;13.18;;;6.28;;
50549;SDS011;36505;52.512;13.460;2023-09-18T06:36:30;11.15;;;6.70;;
50549;SDS011;36505;52.512;13.460;2023-09-18T06:38:55;8.32;;;6.22;;
50549;SDS011;36505;52.512;13.460;2023-09-18T06:41:20;9.50;;;5.88;;
50549;SDS011;36505;52.512;13.460;2023-09-18T06:43:46;13.32;;;6.07;;
50549;SDS011;36505;52.512;13.460;2023-09-18T06:46:11;10.63;;;5.88;;
50549;SDS011;36505;52.512;13.460;2023-09-18T06:48:36;9.63;;;6.10;;
50549;SDS011;36505;52.512;13.460;2023-09-18T06:51:02;11.55;;;6.05;;
50549;SDS011;36505;52.512;13.460;2023-09-18T06:53:27;7.38;;;5.45;;
50549;SDS011;36505;52.512;13.460;2023-09-18T06:55:53;12.30;;;6.13;;
50549;SDS011;36505;52.512;13.460;2023-09-18T06:58:19;7.60;;;5.35;;
50549;SDS011;36505;52.512;13.460;2023-09-18T07:00:44;7.85;;;5.53;;
50549;SDS011;36505;52.512;13.460;2023-09-18T07:03:10;9.43;;;5.40;;
50549;SDS011;36505;52.512;13.460;2023-09-18T07:05:36;12.18;;;5.20;;
50549;SDS011;36505;52.512;13.460;2023-09-18T07:08:02;8.63;;;5.10;;
50549;SDS011;36505;52.512;13.460;2023-09-18T07:10:29;8.90;;;5.85;;
50549;SDS011;36505;52.512;13.460;2023-09-18T07:12:55;8.02;;;4.88;;
50549;SDS011;36505;52.512;13.460;2023-09-18T07:15:20;11.60;;;5.47;;
50549;SDS011;36505;52.512;13.460;2023-09-18T07:17:46;8.60;;;4.85;;
50549;SDS011;36505;52.512;13.460;2023-09-18T07:20:13;7.40;;;4.97;;
50549;SDS011;36505;52.512;13.460;2023-09-18T07:22:44;11.88;;;5.68;;
50549;SDS011;36505;52.512;13.460;2023-09-18T07:25:11;8.02;;;4.85;;
50549;SDS011;36505;52.512;13.460;2023-09-18T07:27:37;10.50;;;4.68;;
50549;SDS011;36505;52.512;13.460;2023-09-18T07:30:05;10.65;;;4.30;;
50549;SDS011;36505;52.512;13.460;2023-09-18T07:32:30;9.18;;;5.07;;
50549;SDS011;36505;52.512;13.460;2023-09-18T07:34:57;9.23;;;4.85;;
50549;SDS011;36505;52.512;13.460;2023-09-18T07:37:23;5.55;;;4.05;;
50549;SDS011;36505;52.512;13.460;2023-09-18T07:39:48;5.07;;;3.85;;
50549;SDS011;36505;52.512;13.460;2023-09-18T07:42:14;10.07;;;4.75;;
50549;SDS011;36505;52.512;13.460;2023-09-18T07:44:39;8.93;;;4.15;;
50549;SDS011;36505;52.512;13.460;2023-09-18T07:47:05;5.57;;;3.92;;
50549;SDS011;36505;52.512;13.460;2023-09-18T07:49:30;6.50;;;4.45;;
50549;SDS011;36505;52.512;13.460;2023-09-18T07:51:56;12.07;;;4.10;;
50549;SDS011;36505;52.512;13.460;2023-09-18T07:54:21;6.97;;;3.80;;
50549;SDS011;36505;52.512;13.460;2023-09-18T07:56:46;6.13;;;3.70;;
50549;SDS011;36505;52.512;13.460;2023-09-18T07:59:12;8.27;;;3.97;;
50549;SDS011;36505;52.512;13.460;2023-09-18T08:01:39;7.38;;;4.05;;
50549;SDS011;36505;52.512;13.460;2023-09-18T08:04:05;5.30;;;3.85;;
50549;SDS011;36505;52.512;13.460;2023-09-18T08:06:31;9.57;;;4.00;;
50549;SDS011;36505;52.512;13.460;2023-09-18T08:08:56;5.00;;;3.78;;
50549;SDS011;36505;52.512;13.460;2023-09-18T08:11:21;6.95;;;3.38;;
50549;SDS011;36505;52.512;13.460;2023-09-18T08:13:48;5.07;;;4.03;;
50549;SDS011;36505;52.512;13.460;2023-09-18T08:16:13;8.57;;;3.60;;
50549;SDS011;36505;52.512;13.460;2023-09-18T08:18:39;4.43;;;3.60;;
50549;SDS011;36505;52.512;13.460;2023-09-18T08:21:06;5.68;;;3.72;;
50549;SDS011;36505;52.512;13.460;2023-09-18T08:23:34;8.23;;;3.72;;
50549;SDS011;36505;52.512;13.460;2023-09-18T08:26:00;6.13;;;3.80;;
50549;SDS011;36505;52.512;13.460;2023-09-18T08:28:26;7.82;;;3.80;;
50549;SDS011;36505;52.512;13.460;2023-09-18T08:30:51;5.07;;;3.88;;
50549;SDS011;36505;52.512;13.460;2023-09-18T08:33:17;5.75;;;3.50;;
50549;SDS011;36505;52.512;13.460;2023-09-18T08:35:42;4.88;;;3.38;;
50549;SDS011;36505;52.512;13.460;2023-09-18T08:38:09;4.40;;;3.05;;
50549;SDS011;36505;52.512;13.460;2023-09-18T08:40:34;4.85;;;3.00;;
50549;SDS011;36505;52.512;13.460;2023-09-18T08:43:00;6.18;;;3.67;;
50549;SDS011;36505;52.512;13.460;2023-09-18T08:45:37;5.32;;;3.72;;
50549;SDS011;36505;52.512;13.460;2023-09-18T08:48:11;8.13;;;3.72;;
50549;SDS011;36505;52.512;13.460;2023-09-18T08:50:36;10.98;;;4.38;;
50549;SDS011;36505;52.512;13.460;2023-09-18T08:53:03;7.63;;;3.95;;
50549;SDS011;36505;52.512;13.460;2023-09-18T08:55:29;8.40;;;3.65;;
50549;SDS011;36505;52.512;13.460;2023-09-18T08:57:55;7.75;;;3.42;;
50549;SDS011;36505;52.512;13.460;2023-09-18T09:00:23;7.82;;;3.78;;
50549;SDS011;36505;52.512;13.460;2023-09-18T09:02:48;6.30;;;3.60;;
50549;SDS011;36505;52.512;13.460;2023-09-18T09:05:16;14.35;;;3.95;;
50549;SDS011;36505;52.512;13.460;2023-09-18T09:07:41;8.27;;;3.47;;
50549;SDS011;36505;52.512;13.460;2023-09-18T09:10:07;7.80;;;3.50;;
50549;SDS011;36505;52.512;13.460;2023-09-18T09:15:14;8.18;;;3.58;;
50549;SDS011;36505;52.512;13.460;2023-09-18T09:17:40;10.32;;;3.20;;
50549;SDS011;36505;52.512;13.460;2023-09-18T09:20:11;5.60;;;3.30;;
50549;SDS011;36505;52.512;13.460;2023-09-18T09:22:38;5.45;;;3.50;;
50549;SDS011;36505;52.512;13.460;2023-09-18T09:25:09;5.38;;;3.60;;
50549;SDS011;36505;52.512;13.460;2023-09-18T09:27:47;6.28;;;3.05;;
50549;SDS011;36505;52.512;13.460;2023-09-18T09:30:18;5.68;;;3.20;;
50549;SDS011;36505;52.512;13.460;2023-09-18T09:32:47;6.57;;;3.40;;
50549;SDS011;36505;52.512;13.460;2023-09-18T09:35:18;4.85;;;2.95;;
50549;SDS011;36505;52.512;13.460;2023-09-18T09:37:47;5.63;;;3.58;;
50549;SDS011;36505;52.512;13.460;2023-09-18T09:40:14;6.95;;;3.33;;
50549;SDS011;36505;52.512;13.460;2023-09-18T09:42:40;8.20;;;3.22;;
50549;SDS011;36505;52.512;13.460;2023-09-18T09:45:13;7.35;;;3.35;;
50549;SDS011;36505;52.512;13.460;2023-09-18T09:47:41;4.25;;;3.17;;
50549;SDS011;36505;52.512;13.460;2023-09-18T09:50:13;5.70;;;3.10;;
50549;SDS011;36505;52.512;13.460;2023-09-18T09:52:42;5.47;;;3.30;;
50549;SDS011;36505;52.512;13.460;2023-09-18T09:58:08;6.47;;;4.45;;
50549;SDS011;36505;52.512;13.460;2023-09-18T10:03:13;9.00;;;3.83;;
50549;SDS011;36505;52.512;13.460;2023-09-18T10:05:44;7.75;;;3.50;;
50549;SDS011;36505;52.512;13.460;2023-09-18T10:08:23;7.72;;;3.60;;
50549;SDS011;36505;52.512;13.460;2023-09-18T10:10:54;4.50;;;3.42;;
50549;SDS011;36505;52.512;13.460;2023-09-18T10:13:23;8.00;;;3.70;;
50549;SDS011;36505;52.512;13.460;2023-09-18T10:15:54;12.88;;;3.47;;
50549;SDS011;36505;52.512;13.460;2023-09-18T10:18:30;5.38;;;3.47;;
50549;SDS011;36505;52.512;13.460;2023-09-18T10:21:14;9.02;;;4.28;;
50549;SDS011;36505;52.512;13.460;2023-09-18T10:26:16;5.55;;;3.72;;
50549;SDS011;36505;52.512;13.460;2023-09-18T10:28:49;9.00;;;3.97;;
50549;SDS011;36505;52.512;13.460;2023-09-18T10:31:18;6.88;;;3.53;;
50549;SDS011;36505;52.512;13.460;2023-09-18T10:33:45;8.73;;;3.90;;
50549;SDS011;36505;52.512;13.460;2023-09-18T10:36:16;5.47;;;3.78;;
50549;SDS011;36505;52.512;13.460;2023-09-18T10:38:45;6.40;;;4.05;;
50549;SDS011;36505;52.512;13.460;2023-09-18T10:41:26;14.80;;;3.83;;
50549;SDS011;36505;52.512;13.460;2023-09-18T10:44:10;6.03;;;3.38;;
50549;SDS011;36505;52.512;13.460;2023-09-18T10:46:36;6.85;;;3.70;;
50549;SDS011;36505;52.512;13.460;2023-09-18T10:49:02;11.88;;;3.50;;
50549;SDS011;36505;52.512;13.460;2023-09-18T10:51:28;7.57;;;4.70;;
50549;SDS011;36505;52.512;13.460;2023-09-18T10:53:56;10.88;;;3.35;;
50549;SDS011;36505;52.512;13.460;2023-09-18T10:56:21;7.57;;;3.33;;
50549;SDS011;36505;52.512;13.460;2023-09-18T10:58:55;5.18;;;3.65;;
50549;SDS011;36505;52.512;13.460;2023-09-18T11:01:23;5.90;;;3.03;;
50549;SDS011;36505;52.512;13.460;2023-09-18T11:03:50;13.93;;;4.30;;
50549;SDS011;36505;52.512;13.460;2023-09-18T11:06:15;7.82;;;3.72;;
50549;SDS011;36505;52.512;13.460;2023-09-18T11:11:12;10.18;;;3.85;;
50549;SDS011;36505;52.512;13.460;2023-09-18T11:13:46;8.38;;;3.58;;
50549;SDS011;36505;52.512;13.460;2023-09-18T11:18:45;8.90;;;3.90;;
50549;SDS011;36505;52.512;13.460;2023-09-18T11:21:13;8.93;;;4.53;;
50549;SDS011;36505;52.512;13.460;2023-09-18T11:23:42;5.80;;;4.10;;
50549;SDS011;36505;52.512;13.460;2023-09-18T11:26:08;6.95;;;4.28;;
50549;SDS011;36505;52.512;13.460;2023-09-18T11:28:35;5.03;;;3.90;;
50549;SDS011;36505;52.512;13.460;2023-09-18T11:31:07;8.88;;;3.80;;
50549;SDS011;36505;52.512;13.460;2023-09-18T11:41:22;11.75;;;4.40;;
50549;SDS011;36505;52.512;13.460;2023-09-18T11:46:38;7.95;;;3.90;;
50549;SDS011;36505;52.512;13.460;2023-09-18T11:49:18;8.63;;;3.70;;
50549;SDS011;36505;52.512;13.460;2023-09-18T11:51:51;6.25;;;4.10;;
50549;SDS011;36505;52.512;13.460;2023-09-18T11:54:17;6.97;;;3.70;;
50549;SDS011;36505;52.512;13.460;2023-09-18T11:56:43;14.02;;;4.20;;
50549;SDS011;36505;52.512;13.460;2023-09-18T11:59:09;5.45;;;4.07;;
50549;SDS011;36505;52.512;13.460;2023-09-18T12:01:36;13.10;;;4.72;;
50549;SDS011;36505;52.512;13.460;2023-09-18T12:04:04;7.45;;;4.13;;
50549;SDS011;36505;52.512;13.460;2023-09-18T12:06:34;8.23;;;4.18;;
50549;SDS011;36505;52.512;13.460;2023-09-18T12:09:01;7.55;;;3.67;;
50549;SDS011;36505;52.512;13.460;2023-09-18T12:11:28;10.68;;;4.13;;
50549;SDS011;36505;52.512;13.460;2023-09-18T12:13:54;7.68;;;3.92;;
50549;SDS011;36505;52.512;13.460;2023-09-18T12:16:20;11.48;;;4.55;;
50549;SDS011;36505;52.512;13.460;2023-09-18T12:18:46;10.50;;;4.03;;
50549;SDS011;36505;52.512;13.460;2023-09-18T12:21:13;6.70;;;3.70;;
50549;SDS011;36505;52.512;13.460;2023-09-18T12:23:40;7.18;;;4.35;;
50549;SDS011;36505;52.512;13.460;2023-09-18T12:26:09;8.02;;;4.00;;
50549;SDS011;36505;52.512;13.460;2023-09-18T12:28:38;7.43;;;3.90;;
50549;SDS011;36505;52.512;13.460;2023-09-18T12:31:04;7.00;;;3.55;;
50549;SDS011;36505;52.512;13.460;2023-09-18T12:33:38;10.20;;;3.75;;
50549;SDS011;36505;52.512;13.460;2023-09-18T12:36:04;6.10;;;3.78;;
50549;SDS011;36505;52.512;13.460;2023-09-18T12:38:31;8.27;;;4.18;;
50549;SDS011;36505;52.512;13.460;2023-09-18T12:40:57;7.43;;;3.90;;
50549;SDS011;36505;52.512;13.460;2023-09-18T12:43:32;19.52;;;4.47;;
50549;SDS011;36505;52.512;13.460;2023-09-18T12:45:59;5.65;;;3.72;;
50549;SDS011;36505;52.512;13.460;2023-09-18T12:48:25;5.38;;;3.58;;
50549;SDS011;36505;52.512;13.460;2023-09-18T12:50:52;6.20;;;4.03;;
50549;SDS011;36505;52.512;13.460;2023-09-18T12:53:23;6.90;;;3.92;;
50549;SDS011;36505;52.512;13.460;2023-09-18T12:55:48;5.85;;;3.90;;
50549;SDS011;36505;52.512;13.460;2023-09-18T12:58:18;10.75;;;3.67;;
50549;SDS011;36505;52.512;13.460;2023-09-18T13:00:45;5.15;;;3.53;;
50549;SDS011;36505;52.512;13.460;2023-09-18T13:03:14;6.90;;;3.97;;
50549;SDS011;36505;52.512;13.460;2023-09-18T13:05:40;7.88;;;4.55;;
50549;SDS011;36505;52.512;13.460;2023-09-18T13:08:05;11.85;;;4.10;;
50549;SDS011;36505;52.512;13.460;2023-09-18T13:10:42;14.82;;;4.07;;
50549;SDS011;36505;52.512;13.460;2023-09-18T13:13:15;12.73;;;3.75;;
50549;SDS011;36505;52.512;13.460;2023-09-18T13:15:50;7.80;;;3.80;;
50549;SDS011;36505;52.512;13.460;2023-09-18T13:18:16;9.75;;;4.05;;
50549;SDS011;36505;52.512;13.460;2023-09-18T13:20:43;8.85;;;3.75;;
50549;SDS011;36505;52.512;13.460;2023-09-18T13:23:09;14.23;;;4.28;;
50549;SDS011;36505;52.512;13.460;2023-09-18T13:25:36;12.82;;;4.13;;
50549;SDS011;36505;52.512;13.460;2023-09-18T13:28:07;12.90;;;4.07;;
50549;SDS011;36505;52.512;13.460;2023-09-18T13:30:33;12.90;;;4.32;;
50549;SDS011;36505;52.512;13.460;2023-09-18T13:33:08;8.90;;;3.53;;
50549;SDS011;36505;52.512;13.460;2023-09-18T13:35:35;7.25;;;3.90;;
50549;SDS011;36505;52.512;13.460;2023-09-18T13:38:02;9.38;;;4.03;;
50549;SDS011;36505;52.512;13.460;2023-09-18T13:40:33;14.57;;;4.50;;
50549;SDS011;36505;52.512;13.460;2023-09-18T13:43:01;9.57;;;4.03;;
50549;SDS011;36505;52.512;13.460;2023-09-18T13:45:29;10.93;;;4.47;;
50549;SDS011;36505;52.512;13.460;2023-09-18T13:47:55;8.65;;;4.18;;
50549;SDS011;36505;52.512;13.460;2023-09-18T13:50:20;9.77;;;3.65;;
50549;SDS011;36505;52.512;13.460;2023-09-18T13:52:46;7.20;;;4.35;;
50549;SDS011;36505;52.512;13.460;2023-09-18T13:55:12;7.00;;;3.70;;
50549;SDS011;36505;52.512;13.460;2023-09-18T13:57:37;9.68;;;3.72;;
50549;SDS011;36505;52.512;13.460;2023-09-18T14:00:05;14.93;;;4.50;;
50549;SDS011;36505;52.512;13.460;2023-09-18T14:02:34;12.65;;;3.92;;
50549;SDS011;36505;52.512;13.460;2023-09-18T14:05:00;9.15;;;4.22;;
50549;SDS011;36505;52.512;13.460;2023-09-18T14:07:25;8.52;;;4.13;;
50549;SDS011;36505;52.512;13.460;2023-09-18T14:09:51;10.43;;;4.70;;
50549;SDS011;36505;52.512;13.460;2023-09-18T14:12:16;10.60;;;4.32;;
50549;SDS011;36505;52.512;13.460;2023-09-18T14:14:42;8.98;;;4.70;;
50549;SDS011;36505;52.512;13.460;2023-09-18T14:17:08;9.65;;;3.67;;
50549;SDS011;36505;52.512;13.460;2023-09-18T14:19:35;8.30;;;4.45;;
50549;SDS011;36505;52.512;13.460;2023-09-18T14:22:03;8.85;;;4.38;;
50549;SDS011;36505;52.512;13.460;2023-09-18T14:24:30;8.68;;;3.38;;
50549;SDS011;36505;52.512;13.460;2023-09-18T14:26:56;7.00;;;3.95;;
50549;SDS011;36505;52.512;13.460;2023-09-18T14:29:22;7.70;;;4.68;;
50549;SDS011;36505;52.512;13.460;2023-09-18T14:31:47;12.98;;;3.90;;
50549;SDS011;36505;52.512;13.460;2023-09-18T14:34:13;7.20;;;3.50;;
50549;SDS011;36505;52.512;13.460;2023-09-18T14:36:38;11.80;;;4.32;;
50549;SDS011;36505;52.512;13.460;2023-09-18T14:39:07;7.65;;;3.42;;
50549;SDS011;36505;52.512;13.460;2023-09-18T14:41:33;11.18;;;4.68;;
50549;SDS011;36505;52.512;13.460;2023-09-18T14:44:00;15.07;;;4.40;;
50549;SDS011;36505;52.512;13.460;2023-09-18T14:46:25;12.73;;;3.88;;
50549;SDS011;36505;52.512;13.460;2023-09-18T14:48:50;14.90;;;4.35;;
50549;SDS011;36505;52.512;13.460;2023-09-18T14:51:16;9.90;;;2.92;;
50549;SDS011;36505;52.512;13.460;2023-09-18T14:53:42;13.23;;;4.07;;
50549;SDS011;36505;52.512;13.460;2023-09-18T14:56:07;12.52;;;4.30;;
50549;SDS011;36505;52.512;13.460;2023-09-18T14:58:32;10.57;;;3.60;;
50549;SDS011;36505;52.512;13.460;2023-09-18T15:00:58;11.10;;;3.70;;